sensor_id;sensor_type;location;lat;lon;timestamp;pressure;altitude;pressure_sealevel;temperature;humidity
62201;BME280;48197;42.732;27.192;2022-07-17T00:02:03;99802.63;;;18.61;73.39
62201;BME280;48197;42.732;27.192;2022-07-17T00:04:30;99805.69;;;18.54;73.49
62201;BME280;48197;42.732;27.192;2022-07-17T00:06:57;99806.72;;;18.47;73.81
62201;BME280;48197;42.732;27.192;2022-07-17T00:09:23;99805.31;;;18.43;73.88
62201;BME280;48197;42.732;27.192;2022-07-17T00:11:50;99818.06;;;18.44;74.29
62201;BME280;48197;42.732;27.192;2022-07-17T00:14:17;99814.53;;;18.52;74.22
62201;BME280;48197;42.732;27.192;2022-07-17T00:16:43;99818.50;;;18.64;73.89
62201;BME280;48197;42.732;27.192;2022-07-17T00:19:10;99815.13;;;18.69;73.71
62201;BME280;48197;42.732;27.192;2022-07-17T00:21:36;99817.91;;;18.69;73.87
62201;BME280;48197;42.732;27.192;2022-07-17T00:24:03;99821.69;;;18.75;73.55
62201;BME280;48197;42.732;27.192;2022-07-17T00:26:32;99823.91;;;18.81;73.52
62201;BME280;48197;42.732;27.192;2022-07-17T00:29:02;99819.72;;;18.85;73.64
62201;BME280;48197;42.732;27.192;2022-07-17T00:31:28;99825.19;;;18.89;73.50
62201;BME280;48197;42.732;27.192;2022-07-17T00:33:55;99818.34;;;18.90;73.58
62201;BME280;48197;42.732;27.192;2022-07-17T00:36:21;99818.53;;;18.95;73.77
62201;BME280;48197;42.732;27.192;2022-07-17T00:38:48;99822.63;;;19.04;73.65
62201;BME280;48197;42.732;27.192;2022-07-17T00:41:15;99823.25;;;19.08;73.56
62201;BME280;48197;42.732;27.192;2022-07-17T00:43:41;99820.78;;;19.10;73.40
62201;BME280;48197;42.732;27.192;2022-07-17T00:46:08;99814.25;;;19.13;73.26
62201;BME280;48197;42.732;27.192;2022-07-17T00:48:35;99815.31;;;19.06;73.26
62201;BME280;48197;42.732;27.192;2022-07-17T00:51:01;99823.84;;;19.03;73.40
62201;BME280;48197;42.732;27.192;2022-07-17T00:53:28;99816.81;;;18.98;73.60
62201;BME280;48197;42.732;27.192;2022-07-17T00:55:57;99817.91;;;18.91;73.76
62201;BME280;48197;42.732;27.192;2022-07-17T00:58:24;99815.59;;;18.77;74.32
62201;BME280;48197;42.732;27.192;2022-07-17T01:00:53;99821.13;;;18.59;75.12
62201;BME280;48197;42.732;27.192;2022-07-17T01:03:20;99822.75;;;18.47;75.74
62201;BME280;48197;42.732;27.192;2022-07-17T01:08:50;99825.41;;;18.28;76.25
62201;BME280;48197;42.732;27.192;2022-07-17T01:11:17;99820.84;;;18.22;76.64
62201;BME280;48197;42.732;27.192;2022-07-17T01:13:44;99816.50;;;18.21;76.94
62201;BME280;48197;42.732;27.192;2022-07-17T01:16:12;99823.53;;;18.25;77.08
62201;BME280;48197;42.732;27.192;2022-07-17T01:18:40;99819.38;;;18.30;77.08
62201;BME280;48197;42.732;27.192;2022-07-17T01:21:07;99819.25;;;18.33;76.88
62201;BME280;48197;42.732;27.192;2022-07-17T01:23:34;99818.13;;;18.31;77.02
62201;BME280;48197;42.732;27.192;2022-07-17T01:26:01;99824.19;;;18.29;77.08
62201;BME280;48197;42.732;27.192;2022-07-17T01:28:27;99822.75;;;18.25;77.32
62201;BME280;48197;42.732;27.192;2022-07-17T01:30:55;99823.00;;;18.17;77.26
62201;BME280;48197;42.732;27.192;2022-07-17T01:33:22;99819.88;;;18.15;77.49
62201;BME280;48197;42.732;27.192;2022-07-17T01:35:48;99821.13;;;18.14;77.46
62201;BME280;48197;42.732;27.192;2022-07-17T01:38:15;99813.75;;;18.08;77.43
62201;BME280;48197;42.732;27.192;2022-07-17T01:40:41;99818.03;;;18.00;77.49
62201;BME280;48197;42.732;27.192;2022-07-17T01:43:08;99813.16;;;17.91;77.71
62201;BME280;48197;42.732;27.192;2022-07-17T01:45:35;99809.94;;;17.80;77.98
62201;BME280;48197;42.732;27.192;2022-07-17T01:48:01;99812.19;;;17.72;78.39
62201;BME280;48197;42.732;27.192;2022-07-17T01:50:28;99806.94;;;17.61;78.81
62201;BME280;48197;42.732;27.192;2022-07-17T01:52:54;99815.34;;;17.48;79.27
62201;BME280;48197;42.732;27.192;2022-07-17T01:55:21;99803.53;;;17.31;80.36
62201;BME280;48197;42.732;27.192;2022-07-17T01:57:47;99802.63;;;17.22;81.20
62201;BME280;48197;42.732;27.192;2022-07-17T02:00:14;99799.97;;;17.18;82.01
62201;BME280;48197;42.732;27.192;2022-07-17T02:02:43;99797.53;;;17.07;82.89
62201;BME280;48197;42.732;27.192;2022-07-17T02:05:10;99812.69;;;16.93;83.37
62201;BME280;48197;42.732;27.192;2022-07-17T02:07:36;99807.34;;;16.86;84.01
62201;BME280;48197;42.732;27.192;2022-07-17T02:10:07;99811.69;;;16.87;84.54
62201;BME280;48197;42.732;27.192;2022-07-17T02:12:34;99810.47;;;16.88;84.79
62201;BME280;48197;42.732;27.192;2022-07-17T02:15:01;99805.91;;;16.82;84.98
62201;BME280;48197;42.732;27.192;2022-07-17T02:17:28;99810.97;;;16.70;85.43
62201;BME280;48197;42.732;27.192;2022-07-17T02:19:54;99804.94;;;16.59;86.07
62201;BME280;48197;42.732;27.192;2022-07-17T02:22:21;99810.28;;;16.53;86.64
62201;BME280;48197;42.732;27.192;2022-07-17T02:24:47;99818.06;;;16.46;87.08
62201;BME280;48197;42.732;27.192;2022-07-17T02:27:14;99822.63;;;16.40;87.46
62201;BME280;48197;42.732;27.192;2022-07-17T02:29:40;99826.19;;;16.40;87.76
62201;BME280;48197;42.732;27.192;2022-07-17T02:32:06;99825.47;;;16.52;88.09
62201;BME280;48197;42.732;27.192;2022-07-17T02:34:33;99817.78;;;16.69;87.74
62201;BME280;48197;42.732;27.192;2022-07-17T02:37:00;99819.38;;;16.83;87.70
62201;BME280;48197;42.732;27.192;2022-07-17T02:39:26;99822.66;;;16.94;87.12
62201;BME280;48197;42.732;27.192;2022-07-17T02:41:53;99826.78;;;17.03;87.12
62201;BME280;48197;42.732;27.192;2022-07-17T02:44:19;99818.53;;;17.12;86.83
62201;BME280;48197;42.732;27.192;2022-07-17T02:46:46;99826.47;;;17.26;86.51
62201;BME280;48197;42.732;27.192;2022-07-17T02:49:12;99824.53;;;17.36;86.20
62201;BME280;48197;42.732;27.192;2022-07-17T02:51:39;99822.63;;;17.46;85.63
62201;BME280;48197;42.732;27.192;2022-07-17T02:54:05;99831.88;;;17.55;85.33
62201;BME280;48197;42.732;27.192;2022-07-17T02:56:32;99822.47;;;17.62;84.74
62201;BME280;48197;42.732;27.192;2022-07-17T02:58:59;99823.59;;;17.65;84.50
62201;BME280;48197;42.732;27.192;2022-07-17T03:01:25;99821.91;;;17.67;84.15
62201;BME280;48197;42.732;27.192;2022-07-17T03:03:52;99834.31;;;17.66;84.25
62201;BME280;48197;42.732;27.192;2022-07-17T03:06:19;99830.63;;;17.69;84.35
62201;BME280;48197;42.732;27.192;2022-07-17T03:08:46;99832.06;;;17.74;84.00
62201;BME280;48197;42.732;27.192;2022-07-17T03:11:13;99836.31;;;17.79;84.02
62201;BME280;48197;42.732;27.192;2022-07-17T03:13:39;99830.19;;;17.84;83.91
62201;BME280;48197;42.732;27.192;2022-07-17T03:19:08;99837.66;;;17.87;83.75
62201;BME280;48197;42.732;27.192;2022-07-17T03:21:35;99832.72;;;17.91;83.89
62201;BME280;48197;42.732;27.192;2022-07-17T03:24:01;99842.09;;;17.97;83.38
62201;BME280;48197;42.732;27.192;2022-07-17T03:29:30;99833.13;;;18.02;83.25
62201;BME280;48197;42.732;27.192;2022-07-17T03:31:56;99834.72;;;18.03;83.09
62201;BME280;48197;42.732;27.192;2022-07-17T03:34:23;99841.84;;;18.04;83.12
62201;BME280;48197;42.732;27.192;2022-07-17T03:36:50;99837.03;;;18.05;83.07
62201;BME280;48197;42.732;27.192;2022-07-17T03:39:17;99843.44;;;18.05;82.78
62201;BME280;48197;42.732;27.192;2022-07-17T03:41:43;99845.75;;;18.07;83.00
62201;BME280;48197;42.732;27.192;2022-07-17T03:44:10;99838.50;;;18.09;82.82
62201;BME280;48197;42.732;27.192;2022-07-17T03:46:37;99852.22;;;18.16;82.52
62201;BME280;48197;42.732;27.192;2022-07-17T03:49:03;99842.91;;;18.20;82.40
62201;BME280;48197;42.732;27.192;2022-07-17T03:51:30;99851.28;;;18.20;82.36
62201;BME280;48197;42.732;27.192;2022-07-17T03:53:57;99847.94;;;18.25;82.13
62201;BME280;48197;42.732;27.192;2022-07-17T03:56:24;99836.91;;;18.30;82.16
62201;BME280;48197;42.732;27.192;2022-07-17T03:58:50;99848.66;;;18.38;81.80
62201;BME280;48197;42.732;27.192;2022-07-17T04:01:17;99849.63;;;18.44;81.65
62201;BME280;48197;42.732;27.192;2022-07-17T04:03:43;99847.81;;;18.50;81.46
62201;BME280;48197;42.732;27.192;2022-07-17T04:06:10;99852.34;;;18.57;81.33
62201;BME280;48197;42.732;27.192;2022-07-17T04:08:36;99859.59;;;18.67;81.08
62201;BME280;48197;42.732;27.192;2022-07-17T04:11:03;99863.56;;;18.79;80.95
62201;BME280;48197;42.732;27.192;2022-07-17T04:13:29;99857.75;;;18.95;80.83
62201;BME280;48197;42.732;27.192;2022-07-17T04:15:56;99861.31;;;19.27;80.15
62201;BME280;48197;42.732;27.192;2022-07-17T04:18:26;99860.25;;;20.11;76.97
62201;BME280;48197;42.732;27.192;2022-07-17T04:20:54;99860.69;;;20.84;73.93
62201;BME280;48197;42.732;27.192;2022-07-17T04:23:22;99860.13;;;21.55;68.50
62201;BME280;48197;42.732;27.192;2022-07-17T04:25:55;99854.59;;;22.33;62.33
62201;BME280;48197;42.732;27.192;2022-07-17T04:28:22;99857.16;;;22.91;59.35
62201;BME280;48197;42.732;27.192;2022-07-17T04:30:49;99858.50;;;23.25;56.78
62201;BME280;48197;42.732;27.192;2022-07-17T04:33:16;99859.13;;;23.50;55.77
62201;BME280;48197;42.732;27.192;2022-07-17T04:35:43;99860.91;;;23.68;54.67
62201;BME280;48197;42.732;27.192;2022-07-17T04:38:10;99854.19;;;23.80;54.00
62201;BME280;48197;42.732;27.192;2022-07-17T04:40:37;99866.38;;;23.92;53.98
62201;BME280;48197;42.732;27.192;2022-07-17T04:43:04;99867.78;;;24.02;53.23
62201;BME280;48197;42.732;27.192;2022-07-17T04:45:31;99866.88;;;24.11;51.81
62201;BME280;48197;42.732;27.192;2022-07-17T04:47:58;99870.53;;;24.17;50.14
62201;BME280;48197;42.732;27.192;2022-07-17T04:59:35;99869.31;;;24.44;48.56
62201;BME280;48197;42.732;27.192;2022-07-17T05:02:40;99873.94;;;24.47;48.94
62201;BME280;48197;42.732;27.192;2022-07-17T05:17:28;99887.63;;;24.75;47.05
62201;BME280;48197;42.732;27.192;2022-07-17T05:32:08;99911.03;;;25.71;45.47
62201;BME280;48197;42.732;27.192;2022-07-17T05:34:34;99908.72;;;26.18;44.28
62201;BME280;48197;42.732;27.192;2022-07-17T05:40:03;99914.31;;;26.72;43.75
62201;BME280;48197;42.732;27.192;2022-07-17T05:42:30;99917.19;;;27.00;43.56
62201;BME280;48197;42.732;27.192;2022-07-17T05:44:58;99917.22;;;27.34;41.98
62201;BME280;48197;42.732;27.192;2022-07-17T05:47:25;99914.38;;;27.51;42.11
62201;BME280;48197;42.732;27.192;2022-07-17T05:49:51;99916.13;;;27.71;41.26
62201;BME280;48197;42.732;27.192;2022-07-17T05:52:18;99924.09;;;27.95;40.58
62201;BME280;48197;42.732;27.192;2022-07-17T05:54:44;99927.00;;;28.54;39.82
62201;BME280;48197;42.732;27.192;2022-07-17T05:57:10;99930.00;;;29.69;38.26
62201;BME280;48197;42.732;27.192;2022-07-17T05:59:36;99931.00;;;31.16;36.39
62201;BME280;48197;42.732;27.192;2022-07-17T06:02:03;99924.69;;;31.95;34.37
62201;BME280;48197;42.732;27.192;2022-07-17T06:04:30;99926.06;;;31.16;34.98
62201;BME280;48197;42.732;27.192;2022-07-17T06:06:56;99927.78;;;29.86;36.81
62201;BME280;48197;42.732;27.192;2022-07-17T06:09:23;99929.97;;;29.44;37.55
62201;BME280;48197;42.732;27.192;2022-07-17T06:11:50;99927.66;;;30.79;35.71
62201;BME280;48197;42.732;27.192;2022-07-17T06:14:16;99926.19;;;30.72;34.86
62201;BME280;48197;42.732;27.192;2022-07-17T06:16:43;99926.41;;;29.93;36.17
62201;BME280;48197;42.732;27.192;2022-07-17T06:19:09;99923.38;;;29.30;37.64
62201;BME280;48197;42.732;27.192;2022-07-17T06:21:36;99935.69;;;28.73;38.13
62201;BME280;48197;42.732;27.192;2022-07-17T06:24:03;99935.25;;;27.87;39.47
62201;BME280;48197;42.732;27.192;2022-07-17T06:26:32;99939.66;;;27.32;40.21
62201;BME280;48197;42.732;27.192;2022-07-17T06:28:59;99932.19;;;27.23;40.49
62201;BME280;48197;42.732;27.192;2022-07-17T06:31:26;99933.97;;;27.60;40.04
62201;BME280;48197;42.732;27.192;2022-07-17T06:33:52;99936.50;;;29.39;37.56
62201;BME280;48197;42.732;27.192;2022-07-17T06:36:43;99930.88;;;31.08;35.08
62201;BME280;48197;42.732;27.192;2022-07-17T06:39:10;99931.03;;;32.28;33.29
62201;BME280;48197;42.732;27.192;2022-07-17T06:41:36;99940.38;;;32.89;31.97
62201;BME280;48197;42.732;27.192;2022-07-17T06:44:15;99936.81;;;33.31;29.70
62201;BME280;48197;42.732;27.192;2022-07-17T06:46:44;99942.53;;;33.10;30.33
62201;BME280;48197;42.732;27.192;2022-07-17T06:49:11;99946.16;;;33.52;30.24
62201;BME280;48197;42.732;27.192;2022-07-17T06:51:37;99957.47;;;34.44;29.29
62201;BME280;48197;42.732;27.192;2022-07-17T06:54:04;99961.22;;;34.31;28.97
62201;BME280;48197;42.732;27.192;2022-07-17T06:56:31;99949.06;;;34.46;28.54
62201;BME280;48197;42.732;27.192;2022-07-17T06:58:58;99950.53;;;34.40;28.65
62201;BME280;48197;42.732;27.192;2022-07-17T07:13:36;99961.22;;;34.31;29.31
62201;BME280;48197;42.732;27.192;2022-07-17T07:16:02;99960.25;;;34.00;29.23
62201;BME280;48197;42.732;27.192;2022-07-17T07:18:30;99967.56;;;34.09;29.35
62201;BME280;48197;42.732;27.192;2022-07-17T07:20:57;99966.97;;;34.31;28.90
62201;BME280;48197;42.732;27.192;2022-07-17T07:23:29;99966.16;;;34.23;28.90
62201;BME280;48197;42.732;27.192;2022-07-17T07:25:55;99977.28;;;33.77;29.68
62201;BME280;48197;42.732;27.192;2022-07-17T07:28:23;99969.53;;;34.14;29.51
62201;BME280;48197;42.732;27.192;2022-07-17T07:30:49;99961.25;;;34.83;29.35
62201;BME280;48197;42.732;27.192;2022-07-17T07:33:16;99969.78;;;35.35;28.28
62201;BME280;48197;42.732;27.192;2022-07-17T07:38:45;99962.63;;;35.05;28.85
62201;BME280;48197;42.732;27.192;2022-07-17T07:41:12;99967.50;;;35.26;28.80
62201;BME280;48197;42.732;27.192;2022-07-17T07:43:39;99967.50;;;35.80;28.69
62201;BME280;48197;42.732;27.192;2022-07-17T07:46:06;99969.34;;;36.08;27.82
62201;BME280;48197;42.732;27.192;2022-07-17T07:48:32;99972.44;;;36.17;27.09
62201;BME280;48197;42.732;27.192;2022-07-17T07:50:59;99973.38;;;36.20;27.68
62201;BME280;48197;42.732;27.192;2022-07-17T07:53:26;99975.63;;;36.45;26.96
62201;BME280;48197;42.732;27.192;2022-07-17T07:55:54;99981.81;;;36.26;28.05
62201;BME280;48197;42.732;27.192;2022-07-17T07:58:21;99974.94;;;36.69;27.05
62201;BME280;48197;42.732;27.192;2022-07-17T08:00:48;99980.19;;;36.96;26.78
62201;BME280;48197;42.732;27.192;2022-07-17T08:03:15;99980.69;;;37.10;26.46
62201;BME280;48197;42.732;27.192;2022-07-17T08:05:41;99978.38;;;37.08;26.87
62201;BME280;48197;42.732;27.192;2022-07-17T08:08:08;99986.25;;;37.08;26.63
62201;BME280;48197;42.732;27.192;2022-07-17T08:10:35;99995.44;;;36.81;27.28
62201;BME280;48197;42.732;27.192;2022-07-17T08:13:02;99996.22;;;36.74;26.09
62201;BME280;48197;42.732;27.192;2022-07-17T08:15:29;99996.41;;;36.28;27.16
62201;BME280;48197;42.732;27.192;2022-07-17T08:17:55;99995.22;;;36.38;27.02
62201;BME280;48197;42.732;27.192;2022-07-17T08:20:22;100000.19;;;36.38;27.04
62201;BME280;48197;42.732;27.192;2022-07-17T08:22:49;99989.84;;;36.35;26.73
62201;BME280;48197;42.732;27.192;2022-07-17T08:25:15;100009.09;;;35.86;27.47
62201;BME280;48197;42.732;27.192;2022-07-17T08:27:45;100004.38;;;35.06;28.29
62201;BME280;48197;42.732;27.192;2022-07-17T08:30:13;100000.00;;;34.61;29.22
62201;BME280;48197;42.732;27.192;2022-07-17T08:32:41;99999.47;;;35.61;29.09
62201;BME280;48197;42.732;27.192;2022-07-17T08:35:09;100006.41;;;36.19;27.77
62201;BME280;48197;42.732;27.192;2022-07-17T08:37:43;100006.78;;;36.00;27.75
62201;BME280;48197;42.732;27.192;2022-07-17T08:40:19;100004.84;;;36.18;28.10
62201;BME280;48197;42.732;27.192;2022-07-17T08:42:47;100005.84;;;35.67;28.30
62201;BME280;48197;42.732;27.192;2022-07-17T08:45:14;100005.03;;;35.35;28.74
62201;BME280;48197;42.732;27.192;2022-07-17T08:47:42;100008.34;;;35.70;28.18
62201;BME280;48197;42.732;27.192;2022-07-17T08:50:10;100007.34;;;36.06;28.00
62201;BME280;48197;42.732;27.192;2022-07-17T08:52:38;100016.34;;;36.03;27.71
62201;BME280;48197;42.732;27.192;2022-07-17T08:57:53;100003.03;;;35.00;29.40
62201;BME280;48197;42.732;27.192;2022-07-17T09:00:20;100013.66;;;35.28;28.93
62201;BME280;48197;42.732;27.192;2022-07-17T09:05:27;100003.84;;;35.15;28.85
62201;BME280;48197;42.732;27.192;2022-07-17T09:08:04;100008.78;;;34.19;29.52
62201;BME280;48197;42.732;27.192;2022-07-17T09:10:32;100002.72;;;34.02;30.38
62201;BME280;48197;42.732;27.192;2022-07-17T09:12:59;99994.66;;;34.00;31.21
62201;BME280;48197;42.732;27.192;2022-07-17T09:15:26;99997.22;;;34.40;31.29
62201;BME280;48197;42.732;27.192;2022-07-17T09:17:54;99996.22;;;34.66;30.63
62201;BME280;48197;42.732;27.192;2022-07-17T09:20:21;99983.31;;;35.04;30.05
62201;BME280;48197;42.732;27.192;2022-07-17T09:28:45;99988.41;;;34.82;30.43
62201;BME280;48197;42.732;27.192;2022-07-17T09:31:12;99985.78;;;34.48;30.77
62201;BME280;48197;42.732;27.192;2022-07-17T09:33:40;99985.09;;;33.97;31.40
62201;BME280;48197;42.732;27.192;2022-07-17T09:36:07;99997.44;;;33.64;32.03
62201;BME280;48197;42.732;27.192;2022-07-17T09:38:36;100005.41;;;33.79;32.44
62201;BME280;48197;42.732;27.192;2022-07-17T09:41:03;100004.88;;;33.88;31.56
62201;BME280;48197;42.732;27.192;2022-07-17T09:46:19;100006.09;;;34.21;32.46
62201;BME280;48197;42.732;27.192;2022-07-17T10:00:58;99994.91;;;33.18;33.78
62201;BME280;48197;42.732;27.192;2022-07-17T10:35:15;99993.03;;;31.80;34.75
62201;BME280;48197;42.732;27.192;2022-07-17T10:37:41;99985.94;;;32.26;34.11
62201;BME280;48197;42.732;27.192;2022-07-17T10:40:18;99988.19;;;33.15;33.50
62201;BME280;48197;42.732;27.192;2022-07-17T10:45:16;99977.72;;;33.18;32.85
62201;BME280;48197;42.732;27.192;2022-07-17T10:47:49;99987.03;;;32.50;32.96
62201;BME280;48197;42.732;27.192;2022-07-17T10:53:20;99993.13;;;31.74;34.47
62201;BME280;48197;42.732;27.192;2022-07-17T10:55:50;99994.59;;;31.48;35.01
62201;BME280;48197;42.732;27.192;2022-07-17T10:58:27;99971.19;;;32.35;34.45
62201;BME280;48197;42.732;27.192;2022-07-17T11:03:24;99981.19;;;33.87;31.42
62201;BME280;48197;42.732;27.192;2022-07-17T11:09:10;99969.84;;;34.75;30.15
62201;BME280;48197;42.732;27.192;2022-07-17T11:11:40;99970.19;;;35.77;28.95
62201;BME280;48197;42.732;27.192;2022-07-17T11:14:17;99963.78;;;36.25;28.06
62201;BME280;48197;42.732;27.192;2022-07-17T11:16:50;99966.09;;;36.11;28.57
62201;BME280;48197;42.732;27.192;2022-07-17T11:19:54;99957.16;;;35.38;28.96
62201;BME280;48197;42.732;27.192;2022-07-17T11:25:24;99967.75;;;34.84;29.53
62201;BME280;48197;42.732;27.192;2022-07-17T11:27:56;99959.47;;;35.55;29.62
62201;BME280;48197;42.732;27.192;2022-07-17T11:30:26;99953.72;;;36.49;28.18
62201;BME280;48197;42.732;27.192;2022-07-17T11:33:01;99936.34;;;37.05;27.77
62201;BME280;48197;42.732;27.192;2022-07-17T11:35:31;99950.03;;;36.56;27.94
62201;BME280;48197;42.732;27.192;2022-07-17T11:38:15;99946.00;;;36.59;27.43
62201;BME280;48197;42.732;27.192;2022-07-17T11:40:47;99942.03;;;35.53;28.04
62201;BME280;48197;42.732;27.192;2022-07-17T11:43:16;99939.06;;;34.40;29.17
62201;BME280;48197;42.732;27.192;2022-07-17T11:45:44;99943.84;;;33.51;29.91
62201;BME280;48197;42.732;27.192;2022-07-17T11:48:17;99935.19;;;33.22;30.58
62201;BME280;48197;42.732;27.192;2022-07-17T11:50:54;99938.97;;;33.17;31.42
62201;BME280;48197;42.732;27.192;2022-07-17T11:53:29;99947.81;;;32.71;32.06
62201;BME280;48197;42.732;27.192;2022-07-17T11:55:56;99954.47;;;33.43;31.08
62201;BME280;48197;42.732;27.192;2022-07-17T11:58:22;99951.81;;;33.94;29.80
62201;BME280;48197;42.732;27.192;2022-07-17T12:01:04;99944.41;;;33.28;30.34
62201;BME280;48197;42.732;27.192;2022-07-17T12:03:31;99948.66;;;32.05;31.39
62201;BME280;48197;42.732;27.192;2022-07-17T12:06:01;99954.84;;;31.50;32.11
62201;BME280;48197;42.732;27.192;2022-07-17T12:08:50;99954.53;;;31.22;33.31
62201;BME280;48197;42.732;27.192;2022-07-17T12:11:21;99954.88;;;30.80;34.06
62201;BME280;48197;42.732;27.192;2022-07-17T12:13:47;99962.59;;;30.47;35.09
62201;BME280;48197;42.732;27.192;2022-07-17T12:19:23;99957.97;;;29.95;35.95
62201;BME280;48197;42.732;27.192;2022-07-17T12:22:04;99963.56;;;29.82;36.60
62201;BME280;48197;42.732;27.192;2022-07-17T12:36:57;99955.59;;;30.24;36.53
62201;BME280;48197;42.732;27.192;2022-07-17T12:39:27;99969.06;;;30.67;36.13
62201;BME280;48197;42.732;27.192;2022-07-17T12:41:54;99953.28;;;33.17;33.70
62201;BME280;48197;42.732;27.192;2022-07-17T12:44:21;99957.94;;;35.69;30.33
62201;BME280;48197;42.732;27.192;2022-07-17T12:46:48;99940.06;;;37.48;27.93
62201;BME280;48197;42.732;27.192;2022-07-17T12:49:17;99948.03;;;38.00;26.15
62201;BME280;48197;42.732;27.192;2022-07-17T12:51:44;99929.59;;;38.92;24.89
62201;BME280;48197;42.732;27.192;2022-07-17T12:56:57;99933.78;;;37.42;24.52
62201;BME280;48197;42.732;27.192;2022-07-17T12:59:25;99935.66;;;36.49;25.70
62201;BME280;48197;42.732;27.192;2022-07-17T13:01:52;99946.44;;;35.23;27.30
62201;BME280;48197;42.732;27.192;2022-07-17T13:04:20;99947.53;;;33.80;28.93
62201;BME280;48197;42.732;27.192;2022-07-17T13:06:50;99946.09;;;32.42;30.02
62201;BME280;48197;42.732;27.192;2022-07-17T13:09:17;99949.50;;;31.60;31.72
62201;BME280;48197;42.732;27.192;2022-07-17T13:11:45;99944.38;;;31.07;32.80
62201;BME280;48197;42.732;27.192;2022-07-17T13:14:11;99945.78;;;31.01;33.07
62201;BME280;48197;42.732;27.192;2022-07-17T13:16:39;99952.94;;;30.69;33.43
62201;BME280;48197;42.732;27.192;2022-07-17T13:19:05;99949.25;;;30.93;33.59
62201;BME280;48197;42.732;27.192;2022-07-17T13:21:31;99938.63;;;33.21;31.04
62201;BME280;48197;42.732;27.192;2022-07-17T13:29:55;99923.72;;;37.01;26.60
62201;BME280;48197;42.732;27.192;2022-07-17T13:35:34;99919.94;;;37.66;24.81
62201;BME280;48197;42.732;27.192;2022-07-17T13:38:01;99928.72;;;37.00;24.09
62201;BME280;48197;42.732;27.192;2022-07-17T13:41:03;99928.38;;;36.55;24.00
62201;BME280;48197;42.732;27.192;2022-07-17T13:43:31;99927.44;;;35.82;24.51
62201;BME280;48197;42.732;27.192;2022-07-17T13:51:52;99926.22;;;36.08;25.34
62201;BME280;48197;42.732;27.192;2022-07-17T13:54:22;99923.38;;;36.00;24.92
62201;BME280;48197;42.732;27.192;2022-07-17T13:56:49;99927.06;;;35.54;25.04
62201;BME280;48197;42.732;27.192;2022-07-17T14:02:02;99913.09;;;35.35;25.06
62201;BME280;48197;42.732;27.192;2022-07-17T14:04:45;99920.31;;;35.90;25.07
62201;BME280;48197;42.732;27.192;2022-07-17T14:07:10;99924.75;;;35.91;24.92
62201;BME280;48197;42.732;27.192;2022-07-17T14:09:41;99927.63;;;35.76;25.57
62201;BME280;48197;42.732;27.192;2022-07-17T14:15:09;99928.00;;;35.80;26.19
62201;BME280;48197;42.732;27.192;2022-07-17T14:20:32;99927.75;;;36.97;24.16
62201;BME280;48197;42.732;27.192;2022-07-17T14:23:12;99923.72;;;36.60;23.91
62201;BME280;48197;42.732;27.192;2022-07-17T14:26:15;99953.13;;;35.56;25.27
62201;BME280;48197;42.732;27.192;2022-07-17T14:28:41;99935.81;;;34.87;26.15
62201;BME280;48197;42.732;27.192;2022-07-17T14:31:08;99935.22;;;34.37;26.77
62201;BME280;48197;42.732;27.192;2022-07-17T14:33:35;99926.75;;;34.24;27.24
62201;BME280;48197;42.732;27.192;2022-07-17T14:36:02;99924.84;;;34.19;27.70
62201;BME280;48197;42.732;27.192;2022-07-17T14:38:29;99925.84;;;34.00;27.80
62201;BME280;48197;42.732;27.192;2022-07-17T14:40:56;99917.06;;;33.69;28.55
62201;BME280;48197;42.732;27.192;2022-07-17T14:43:23;99909.97;;;33.21;30.26
62201;BME280;48197;42.732;27.192;2022-07-17T14:45:50;99916.38;;;32.58;31.87
62201;BME280;48197;42.732;27.192;2022-07-17T14:48:17;99915.22;;;32.27;33.43
62201;BME280;48197;42.732;27.192;2022-07-17T14:50:44;99917.00;;;32.03;33.47
62201;BME280;48197;42.732;27.192;2022-07-17T14:53:11;99915.25;;;32.00;33.25
62201;BME280;48197;42.732;27.192;2022-07-17T14:55:38;99916.66;;;32.07;33.55
62201;BME280;48197;42.732;27.192;2022-07-17T14:58:05;99916.34;;;32.10;33.59
62201;BME280;48197;42.732;27.192;2022-07-17T15:00:33;99924.69;;;31.95;33.96
62201;BME280;48197;42.732;27.192;2022-07-17T15:03:00;99915.09;;;31.79;34.75
62201;BME280;48197;42.732;27.192;2022-07-17T15:05:26;99919.91;;;31.58;35.82
62201;BME280;48197;42.732;27.192;2022-07-17T15:07:54;99920.34;;;31.48;36.04
62201;BME280;48197;42.732;27.192;2022-07-17T15:10:20;99915.63;;;31.51;37.09
62201;BME280;48197;42.732;27.192;2022-07-17T15:12:48;99916.84;;;31.56;36.80
62201;BME280;48197;42.732;27.192;2022-07-17T15:15:15;99923.16;;;31.35;36.43
62201;BME280;48197;42.732;27.192;2022-07-17T15:17:42;99925.09;;;31.13;36.67
62201;BME280;48197;42.732;27.192;2022-07-17T15:20:10;99932.81;;;30.81;36.88
62201;BME280;48197;42.732;27.192;2022-07-17T15:22:37;99927.75;;;30.73;37.47
62201;BME280;48197;42.732;27.192;2022-07-17T15:25:05;99932.91;;;30.56;37.56
62201;BME280;48197;42.732;27.192;2022-07-17T15:27:31;99934.81;;;30.29;38.17
62201;BME280;48197;42.732;27.192;2022-07-17T15:29:58;99923.31;;;30.16;38.49
62201;BME280;48197;42.732;27.192;2022-07-17T15:32:26;99931.28;;;29.98;39.21
62201;BME280;48197;42.732;27.192;2022-07-17T15:34:54;99929.88;;;29.86;39.14
62201;BME280;48197;42.732;27.192;2022-07-17T15:37:33;99930.00;;;29.69;38.39
62201;BME280;48197;42.732;27.192;2022-07-17T15:40:00;99930.47;;;29.48;37.79
62201;BME280;48197;42.732;27.192;2022-07-17T15:45:28;99930.81;;;29.39;37.93
62201;BME280;48197;42.732;27.192;2022-07-17T15:47:55;99932.44;;;29.29;38.72
62201;BME280;48197;42.732;27.192;2022-07-17T15:50:22;99933.84;;;29.17;38.54
62201;BME280;48197;42.732;27.192;2022-07-17T15:52:49;99932.16;;;28.97;39.44
62201;BME280;48197;42.732;27.192;2022-07-17T15:55:15;99931.41;;;28.90;39.63